createdAt,value
2022-10-04T00:00:26.501Z,2.90
2022-10-04T00:03:27.591Z,3.70
2022-10-04T00:06:02.228Z,4.70
2022-10-04T00:08:43.534Z,4.40
2022-10-04T00:11:21.429Z,3.50
2022-10-04T00:13:58.548Z,4.00
2022-10-04T00:16:34.074Z,3.00
2022-10-04T00:19:38.403Z,3.30
2022-10-04T00:22:27.568Z,5.30
2022-10-04T00:25:20.541Z,4.80
2022-10-04T00:28:29.273Z,3.40
2022-10-04T00:31:16.230Z,3.10
2022-10-04T00:33:50.281Z,2.50
2022-10-04T00:36:49.418Z,6.50
2022-10-04T00:39:40.363Z,12.10
2022-10-04T00:42:51.282Z,15.50
2022-10-04T00:45:29.612Z,8.10
2022-10-04T00:48:13.154Z,16.80
2022-10-04T00:50:51.416Z,7.30
2022-10-04T00:53:38.812Z,6.30
2022-10-04T00:56:15.392Z,6.20
2022-10-04T00:59:05.061Z,7.30
2022-10-04T01:01:39.231Z,5.10
2022-10-04T01:04:25.585Z,6.10
2022-10-04T01:06:59.034Z,6.60
2022-10-04T01:09:34.850Z,13.10
2022-10-04T01:12:12.058Z,6.30
2022-10-04T01:14:52.974Z,5.10
2022-10-04T01:17:25.124Z,5.90
2022-10-04T01:19:58.067Z,4.70
2022-10-04T01:22:39.161Z,6.30
2022-10-04T01:25:12.436Z,4.40
2022-10-04T01:27:47.296Z,8.90
2022-10-04T01:32:52.031Z,5.40
2022-10-04T01:35:24.233Z,5.60
2022-10-04T01:37:56.441Z,6.50
2022-10-04T01:40:28.881Z,5.30
2022-10-04T01:43:06.398Z,4.00
2022-10-04T01:45:44.417Z,4.50
2022-10-04T01:48:22.328Z,3.40
2022-10-04T01:51:01.041Z,6.40
2022-10-04T01:53:37.014Z,4.10
2022-10-04T01:56:15.331Z,5.60
2022-10-04T01:58:50.601Z,4.10
2022-10-04T02:01:31.338Z,4.30
2022-10-04T02:04:09.366Z,3.80
2022-10-04T02:06:44.400Z,5.20
2022-10-04T02:09:21.002Z,4.70
2022-10-04T02:11:54.432Z,6.80
2022-10-04T02:14:31.935Z,3.20
2022-10-04T02:17:09.286Z,4.40
2022-10-04T02:19:45.196Z,6.10
2022-10-04T02:22:18.761Z,3.80
2022-10-04T02:24:51.884Z,5.90
2022-10-04T02:27:30.159Z,4.10
2022-10-04T02:30:09.340Z,4.60
2022-10-04T02:33:01.410Z,5.10
2022-10-04T02:35:36.515Z,5.40
2022-10-04T02:38:15.191Z,3.50
2022-10-04T02:40:57.270Z,5.20
2022-10-04T02:43:35.837Z,5.50
2022-10-04T02:46:13.546Z,2.10
2022-10-04T02:48:49.050Z,4.60
2022-10-04T02:51:26.974Z,3.40
2022-10-04T02:54:08.564Z,3.80
2022-10-04T02:56:41.158Z,3.60
2022-10-04T02:59:19.184Z,1.90
2022-10-04T03:01:56.479Z,3.00
2022-10-04T03:04:32.427Z,2.40
2022-10-04T03:07:07.501Z,2.30
2022-10-04T03:09:41.536Z,3.10
2022-10-04T03:12:16.245Z,3.10
2022-10-04T03:17:19.377Z,2.80
2022-10-04T03:19:52.637Z,3.00
2022-10-04T03:22:25.482Z,3.30
2022-10-04T03:24:59.271Z,2.70
2022-10-04T03:27:34.064Z,3.60
2022-10-04T03:32:38.826Z,8.40
2022-10-04T03:35:29.633Z,14.10
2022-10-04T03:38:03.248Z,10.00
2022-10-04T03:40:37.902Z,33.80
2022-10-04T03:43:13.606Z,132.90
2022-10-04T03:45:46.039Z,163.70
2022-10-04T03:48:29.981Z,58.10
2022-10-04T03:51:03.628Z,33.40
2022-10-04T03:53:43.370Z,30.40
2022-10-04T03:56:20.112Z,26.90
2022-10-04T03:58:53.370Z,19.60
2022-10-04T04:01:40.612Z,85.00
2022-10-04T04:04:22.428Z,58.30
2022-10-04T04:07:04.232Z,124.30
2022-10-04T04:09:44.042Z,85.90
2022-10-04T04:12:22.395Z,84.30
2022-10-04T04:14:55.536Z,30.00
2022-10-04T04:17:39.113Z,27.70
2022-10-04T04:20:21.190Z,17.80
2022-10-04T04:23:06.735Z,7.40
2022-10-04T04:25:42.155Z,14.60
2022-10-04T04:28:26.505Z,9.10
2022-10-04T04:31:04.286Z,7.10
2022-10-04T04:33:46.302Z,5.70
2022-10-04T04:36:19.224Z,5.40
2022-10-04T04:39:09.031Z,5.00
2022-10-04T04:41:43.811Z,6.60
2022-10-04T04:44:20.980Z,6.40
2022-10-04T04:46:53.761Z,3.50
2022-10-04T04:49:26.066Z,6.30
2022-10-04T04:51:59.134Z,2.80
2022-10-04T04:54:31.302Z,4.90
2022-10-04T04:57:04.029Z,5.00
2022-10-04T04:59:37.204Z,7.40
2022-10-04T05:02:36.445Z,3.70
2022-10-04T05:05:23.606Z,3.80
2022-10-04T05:08:14.892Z,6.10
2022-10-04T05:10:52.058Z,4.30
2022-10-04T05:13:27.264Z,6.50
2022-10-04T05:16:02.334Z,6.20
2022-10-04T05:18:35.527Z,58.20
2022-10-04T05:21:13.931Z,38.20
2022-10-04T05:23:45.994Z,17.10
2022-10-04T05:26:26.059Z,8.30
2022-10-04T05:29:01.499Z,5.30
2022-10-04T05:31:45.848Z,4.80
2022-10-04T05:34:27.248Z,4.00
2022-10-04T05:37:25.443Z,4.20
2022-10-04T05:40:07.421Z,27.30
2022-10-04T05:42:45.638Z,6.70
2022-10-04T05:45:25.206Z,5.50
2022-10-04T05:47:59.206Z,7.80
2022-10-04T05:50:36.245Z,6.20
2022-10-04T05:53:28.484Z,3.70
2022-10-04T05:56:13.811Z,4.20
2022-10-04T05:59:00.376Z,5.00
2022-10-04T06:01:43.265Z,3.30
2022-10-04T06:04:35.788Z,2.30
2022-10-04T06:07:21.671Z,5.00
2022-10-04T06:10:26.222Z,4.00
2022-10-04T06:13:05.356Z,3.80
2022-10-04T06:15:54.353Z,4.30
2022-10-04T06:18:44.318Z,4.60
2022-10-04T06:21:38.737Z,4.70
2022-10-04T06:24:17.910Z,2.90
2022-10-04T06:26:55.504Z,4.20
2022-10-04T06:29:33.787Z,2.80
2022-10-04T06:32:29.447Z,3.30
2022-10-04T06:35:18.645Z,2.70
2022-10-04T06:38:13.085Z,3.60
2022-10-04T06:41:23.706Z,2.80
2022-10-04T06:44:13.904Z,2.30
2022-10-04T06:46:50.879Z,3.80
2022-10-04T06:49:35.529Z,3.60
2022-10-04T06:52:22.840Z,3.70
2022-10-04T06:55:21.082Z,3.70
2022-10-04T06:58:19.584Z,4.70
2022-10-04T07:00:58.624Z,4.10
2022-10-04T07:03:38.476Z,3.60
2022-10-04T07:06:11.875Z,5.50
2022-10-04T07:08:49.277Z,4.30
2022-10-04T07:11:26.015Z,3.70
2022-10-04T07:14:05.901Z,3.70
2022-10-04T07:16:48.588Z,3.10
2022-10-04T07:19:41.515Z,3.60
2022-10-04T07:22:23.662Z,4.80
2022-10-04T07:25:07.658Z,3.10
2022-10-04T07:28:11.140Z,5.00
2022-10-04T07:30:48.631Z,2.90
2022-10-04T07:33:25.289Z,2.50
2022-10-04T07:36:07.604Z,3.60
2022-10-04T07:38:47.679Z,2.90
2022-10-04T07:41:27.886Z,2.20
2022-10-04T07:44:04.745Z,2.50
2022-10-04T07:46:56.737Z,4.70
2022-10-04T07:49:28.922Z,5.00
2022-10-04T07:52:29.884Z,4.00
2022-10-04T07:55:15.102Z,4.20
2022-10-04T08:00:29.599Z,2.50
2022-10-04T08:03:21.631Z,3.10
2022-10-04T08:06:02.031Z,2.80
2022-10-04T08:08:46.976Z,2.60
2022-10-04T08:11:30.276Z,1.70
2022-10-04T08:14:11.249Z,3.30
2022-10-04T08:16:55.903Z,2.70
2022-10-04T08:19:42.083Z,2.60
2022-10-04T08:22:26.576Z,2.90
2022-10-04T08:25:06.596Z,2.60
2022-10-04T08:28:14.184Z,2.80
2022-10-04T08:31:09.408Z,2.80
2022-10-04T08:33:55.414Z,3.10
2022-10-04T08:36:43.780Z,3.40
2022-10-04T08:39:35.305Z,2.80
2022-10-04T08:42:52.836Z,2.90
2022-10-04T08:46:04.689Z,2.50
2022-10-04T08:49:09.394Z,1.90
2022-10-04T08:52:03.306Z,3.30
2022-10-04T08:55:05.634Z,2.60
2022-10-04T08:57:57.416Z,3.60
2022-10-04T09:00:46.989Z,4.80
2022-10-04T09:03:44.419Z,4.90
2022-10-04T09:06:36.478Z,3.10
2022-10-04T09:09:35.989Z,2.80
2022-10-04T09:12:34.884Z,2.70
2022-10-04T09:15:27.354Z,2.50
2022-10-04T09:18:15.968Z,2.30
2022-10-04T09:21:02.199Z,2.80
2022-10-04T09:23:59.024Z,1.90
2022-10-04T09:26:44.990Z,4.50
2022-10-04T09:29:32.807Z,3.90
2022-10-04T09:32:34.915Z,2.40
2022-10-04T09:35:32.165Z,3.10
2022-10-04T09:38:21.198Z,3.10
2022-10-04T09:41:15.036Z,2.70
2022-10-04T09:44:25.335Z,2.50
2022-10-04T09:47:14.376Z,2.30
2022-10-04T09:50:35.801Z,3.10
2022-10-04T09:53:21.752Z,3.90
2022-10-04T09:56:11.412Z,2.20
2022-10-04T09:59:22.239Z,2.60
2022-10-04T10:02:28.358Z,2.20
2022-10-04T10:05:24.257Z,3.90
2022-10-04T10:08:09.941Z,2.60
2022-10-04T10:11:09.622Z,2.90
2022-10-04T10:14:18.475Z,3.50
2022-10-04T10:17:04.722Z,2.70
2022-10-04T10:20:04.731Z,2.80
2022-10-04T10:23:07.224Z,3.20
2022-10-04T10:25:53.493Z,3.00
2022-10-04T10:28:47.932Z,2.80
2022-10-04T10:31:48.362Z,2.70
2022-10-04T10:34:52.413Z,2.00
2022-10-04T10:37:41.960Z,3.00
2022-10-04T10:40:39.339Z,6.30
2022-10-04T10:43:38.550Z,3.90
2022-10-04T10:46:23.662Z,5.50
2022-10-04T10:51:59.719Z,11.40
2022-10-04T10:54:59.882Z,9.70
2022-10-04T10:57:53.756Z,4.70
2022-10-04T11:00:33.616Z,3.60
2022-10-04T11:03:59.952Z,3.50
2022-10-04T11:07:00.049Z,2.40
2022-10-04T11:09:45.671Z,2.60
2022-10-04T11:12:51.294Z,3.70
2022-10-04T11:16:01.938Z,4.10
2022-10-04T11:19:07.415Z,2.90
2022-10-04T11:22:17.382Z,2.70
2022-10-04T11:25:36.197Z,4.20
2022-10-04T11:28:17.163Z,2.80
2022-10-04T11:31:26.193Z,3.00
2022-10-04T11:34:19.438Z,1.70
2022-10-04T11:37:05.606Z,2.10
2022-10-04T11:40:09.970Z,3.30
2022-10-04T11:43:01.836Z,35.40
2022-10-04T11:46:08.541Z,7.00
2022-10-04T11:49:00.210Z,3.10
2022-10-04T11:52:02.474Z,4.10
2022-10-04T11:55:23.747Z,2.10
2022-10-04T11:58:00.380Z,3.20
2022-10-04T12:01:00.104Z,1.90
2022-10-04T12:03:59.035Z,2.90
2022-10-04T12:06:45.959Z,3.90
2022-10-04T12:09:28.151Z,1.60
2022-10-04T12:12:40.272Z,2.20
2022-10-04T12:15:38.637Z,1.80
2022-10-04T12:18:46.285Z,2.80
2022-10-04T12:21:31.060Z,1.60
2022-10-04T12:24:15.959Z,3.70
2022-10-04T12:27:17.725Z,3.70
2022-10-04T12:30:21.771Z,5.10
2022-10-04T12:33:05.359Z,3.70
2022-10-04T12:35:50.144Z,2.00
2022-10-04T12:38:43.333Z,7.20
2022-10-04T12:41:31.982Z,7.20
2022-10-04T12:44:15.512Z,4.10
2022-10-04T12:46:58.773Z,15.10
2022-10-04T12:49:45.755Z,14.80
2022-10-04T12:52:24.036Z,17.50
2022-10-04T12:55:03.885Z,8.30
2022-10-04T12:57:49.754Z,6.20
2022-10-04T13:00:24.708Z,12.40
2022-10-04T13:03:21.826Z,11.10
2022-10-04T13:06:05.205Z,14.60
2022-10-04T13:09:02.770Z,14.20
2022-10-04T13:12:09.297Z,17.70
2022-10-04T13:14:56.175Z,16.60
2022-10-04T13:17:44.862Z,15.40
2022-10-04T13:20:45.837Z,10.60
2022-10-04T13:23:31.482Z,6.80
2022-10-04T13:26:16.903Z,10.30
2022-10-04T13:29:03.039Z,9.80
2022-10-04T13:31:42.802Z,10.90
2022-10-04T13:34:26.790Z,8.80
2022-10-04T13:37:11.038Z,6.60
2022-10-04T13:40:05.044Z,9.20
2022-10-04T13:42:55.641Z,6.70
2022-10-04T13:45:41.741Z,5.70
2022-10-04T13:48:30.761Z,4.90
2022-10-04T13:51:16.301Z,3.00
2022-10-04T13:54:17.417Z,4.40
2022-10-04T13:57:13.331Z,4.30
2022-10-04T13:59:49.346Z,4.00
2022-10-04T14:03:02.993Z,7.30
2022-10-04T14:06:12.373Z,31.40
2022-10-04T14:09:11.690Z,84.60
2022-10-04T14:12:13.204Z,65.30
2022-10-04T14:15:12.214Z,7.60
2022-10-04T14:18:04.713Z,3.30
2022-10-04T14:21:19.913Z,1.80
2022-10-04T14:24:07.931Z,2.30
2022-10-04T14:27:17.891Z,2.20
2022-10-04T14:30:21.027Z,3.00
2022-10-04T14:33:26.163Z,4.70
2022-10-04T14:36:21.544Z,2.50
2022-10-04T14:39:14.008Z,1.90
2022-10-04T14:42:08.856Z,2.30
2022-10-04T14:45:05.529Z,2.10
2022-10-04T14:48:18.145Z,1.60
2022-10-04T14:51:04.550Z,3.00
2022-10-04T14:53:43.273Z,1.70
2022-10-04T14:56:40.195Z,2.10
2022-10-04T14:59:34.098Z,2.40
2022-10-04T15:02:24.133Z,12.40
2022-10-04T15:05:28.697Z,6.10
2022-10-04T15:08:30.157Z,4.00
2022-10-04T15:11:06.955Z,3.30
2022-10-04T15:13:50.061Z,3.70
2022-10-04T15:16:34.975Z,4.70
2022-10-04T15:19:12.796Z,6.70
2022-10-04T15:22:01.869Z,5.80
2022-10-04T15:24:47.971Z,3.50
2022-10-04T15:27:51.714Z,4.40
2022-10-04T15:30:30.991Z,8.00
2022-10-04T15:33:30.703Z,13.90
2022-10-04T15:36:28.644Z,43.80
2022-10-04T15:39:05.207Z,12.80
2022-10-04T15:41:50.605Z,12.10
2022-10-04T15:44:44.434Z,60.90
2022-10-04T15:47:26.457Z,40.00
2022-10-04T15:50:11.099Z,21.90
2022-10-04T15:53:20.173Z,15.20
2022-10-04T15:56:07.935Z,17.40
2022-10-04T15:58:56.616Z,21.10
2022-10-04T16:01:47.579Z,18.90
2022-10-04T16:04:48.188Z,22.10
2022-10-04T16:07:42.844Z,19.70
2022-10-04T16:10:31.266Z,20.70
2022-10-04T16:13:41.505Z,20.40
2022-10-04T16:20:21.336Z,75.10
2022-10-04T16:23:24.492Z,54.80
2022-10-04T16:25:57.895Z,39.70
2022-10-04T16:28:51.676Z,25.40
2022-10-04T16:31:41.324Z,74.40
2022-10-04T16:34:26.033Z,54.80
2022-10-04T16:37:05.294Z,100.40
2022-10-04T16:39:58.353Z,127.30
2022-10-04T16:42:40.777Z,89.10
2022-10-04T16:45:40.551Z,51.60
2022-10-04T16:48:28.736Z,46.20
2022-10-04T16:51:22.348Z,40.10
2022-10-04T16:54:04.799Z,40.90
2022-10-04T16:57:28.800Z,66.20
2022-10-04T17:00:22.005Z,70.30
2022-10-04T17:03:07.844Z,105.90
2022-10-04T17:05:56.499Z,85.50
2022-10-04T17:08:47.785Z,99.10
2022-10-04T17:11:44.108Z,187.20
2022-10-04T17:14:48.248Z,99.80
2022-10-04T17:17:31.835Z,106.20
2022-10-04T17:20:11.491Z,83.10
2022-10-04T17:22:55.264Z,70.80
2022-10-04T17:25:34.531Z,101.70
2022-10-04T17:28:26.319Z,167.30
2022-10-04T17:31:12.674Z,116.80
2022-10-04T17:33:53.861Z,112.30
2022-10-04T17:36:49.642Z,212.60
2022-10-04T17:39:44.549Z,178.50
2022-10-04T17:42:27.412Z,158.80
2022-10-04T17:45:15.496Z,77.30
2022-10-04T17:48:15.376Z,73.80
2022-10-04T17:51:13.730Z,75.80
2022-10-04T17:54:10.107Z,50.80
2022-10-04T17:56:47.274Z,39.80
2022-10-04T17:59:30.004Z,21.40
2022-10-04T18:02:11.853Z,22.90
2022-10-04T18:04:54.637Z,76.40
2022-10-04T18:07:28.846Z,24.40
2022-10-04T18:10:11.686Z,16.60
2022-10-04T18:13:05.494Z,34.50
2022-10-04T18:15:44.683Z,12.80
2022-10-04T18:18:24.637Z,12.30
2022-10-04T18:21:22.001Z,13.90
2022-10-04T18:24:17.768Z,14.60
2022-10-04T18:27:06.267Z,12.50
2022-10-04T18:29:48.436Z,14.70
2022-10-04T18:32:38.643Z,15.30
2022-10-04T18:35:31.727Z,13.30
2022-10-04T18:38:27.032Z,18.70
2022-10-04T18:41:06.610Z,33.40
2022-10-04T18:43:55.612Z,28.10
2022-10-04T18:46:52.415Z,34.30
2022-10-04T18:49:32.795Z,78.20
2022-10-04T18:52:27.765Z,511.90
2022-10-04T18:55:20.982Z,614.30
2022-10-04T18:58:37.485Z,679.90
2022-10-04T19:01:41.430Z,754.40
2022-10-04T19:04:23.863Z,967.10
2022-10-04T19:07:07.691Z,494.90
2022-10-04T19:10:01.746Z,185.80
2022-10-04T19:12:50.821Z,136.40
2022-10-04T19:15:35.119Z,451.60
2022-10-04T19:18:30.065Z,423.00
2022-10-04T19:21:10.699Z,422.00
2022-10-04T19:23:52.741Z,227.00
2022-10-04T19:26:43.658Z,144.70
2022-10-04T19:29:27.083Z,143.90
2022-10-04T19:32:05.314Z,213.00
2022-10-04T19:34:48.396Z,143.00
2022-10-04T19:37:27.049Z,134.20
2022-10-04T19:40:10.313Z,158.70
2022-10-04T19:42:53.263Z,158.80
2022-10-04T19:45:39.047Z,146.50
2022-10-04T19:48:24.230Z,123.20
2022-10-04T19:51:03.837Z,125.80
2022-10-04T19:53:42.662Z,254.00
2022-10-04T19:56:21.305Z,136.70
2022-10-04T19:59:03.966Z,395.40
2022-10-04T20:01:36.575Z,138.80
2022-10-04T20:04:32.741Z,332.30
2022-10-04T20:07:11.599Z,417.00
2022-10-04T20:10:08.739Z,403.50
2022-10-04T20:12:42.677Z,118.70
2022-10-04T20:15:27.473Z,93.30
2022-10-04T20:18:01.475Z,59.50
2022-10-04T20:21:09.687Z,52.60
2022-10-04T20:23:59.205Z,43.70
2022-10-04T20:26:54.516Z,64.40
2022-10-04T20:30:06.464Z,33.20
2022-10-04T20:32:59.455Z,28.30
2022-10-04T20:36:09.641Z,22.60
2022-10-04T20:39:03.029Z,83.00
2022-10-04T20:42:22.722Z,159.10
2022-10-04T20:45:22.411Z,231.50
2022-10-04T20:47:57.844Z,84.90
2022-10-04T20:50:39.041Z,44.40
2022-10-04T20:53:18.954Z,30.80
2022-10-04T20:55:54.102Z,125.70
2022-10-04T20:58:33.050Z,331.00
2022-10-04T21:01:40.062Z,150.00
2022-10-04T21:04:30.040Z,715.90
2022-10-04T21:07:06.694Z,285.70
2022-10-04T21:09:41.190Z,184.60
2022-10-04T21:12:30.646Z,303.70
2022-10-04T21:15:18.793Z,286.30
2022-10-04T21:18:04.924Z,138.80
2022-10-04T21:20:48.468Z,324.50
2022-10-04T21:23:31.478Z,295.70
2022-10-04T21:26:22.977Z,233.60
2022-10-04T21:28:58.134Z,187.40
2022-10-04T21:31:30.637Z,126.40
2022-10-04T21:34:02.972Z,179.00
2022-10-04T21:36:35.325Z,57.70
2022-10-04T21:39:07.689Z,118.10
2022-10-04T21:41:40.022Z,88.30
2022-10-04T21:44:12.548Z,138.90
2022-10-04T21:46:45.244Z,34.60
2022-10-04T21:49:17.645Z,103.90
2022-10-04T21:51:50.059Z,30.40
2022-10-04T21:54:22.740Z,38.30
2022-10-04T21:56:55.160Z,24.30
2022-10-04T21:59:27.560Z,30.80
2022-10-04T22:01:59.979Z,951.10
2022-10-04T22:19:24.526Z,477.70
2022-10-04T22:21:57.025Z,286.90
2022-10-04T22:24:29.426Z,258.50
2022-10-04T22:27:02.473Z,710.10
2022-10-04T22:29:36.869Z,208.30
2022-10-04T22:32:18.280Z,356.80
2022-10-04T22:34:51.483Z,229.70
2022-10-04T22:37:26.106Z,92.50
2022-10-04T22:39:58.575Z,115.90
2022-10-04T22:42:33.271Z,761.70
2022-10-04T22:45:07.506Z,77.00
2022-10-04T22:47:39.790Z,144.40
2022-10-04T22:50:26.428Z,65.00
2022-10-04T22:52:59.213Z,580.60
2022-10-04T22:55:31.627Z,89.40
2022-10-04T22:58:04.212Z,88.00
2022-10-04T23:00:36.487Z,119.10
2022-10-04T23:03:24.581Z,116.10
2022-10-04T23:05:56.876Z,51.70
2022-10-04T23:08:29.698Z,50.20
2022-10-04T23:11:02.689Z,58.40
2022-10-04T23:13:35.091Z,32.20
2022-10-04T23:16:15.447Z,23.50
2022-10-04T23:18:47.944Z,25.00
2022-10-04T23:21:26.026Z,141.00
2022-10-04T23:24:02.687Z,86.70
2022-10-04T23:26:40.056Z,269.40
2022-10-04T23:29:18.773Z,166.00
2022-10-04T23:31:51.682Z,149.60
2022-10-04T23:34:30.148Z,79.20
2022-10-04T23:37:03.130Z,58.30
2022-10-04T23:39:37.487Z,235.40
2022-10-04T23:42:18.449Z,77.80
2022-10-04T23:44:53.071Z,48.20
2022-10-04T23:47:28.649Z,28.50
2022-10-04T23:50:01.215Z,21.60
2022-10-04T23:52:38.404Z,15.10
2022-10-04T23:55:20.498Z,16.00
2022-10-04T23:57:53.135Z,14.60
